Etusivu
METAR-TAF:

METAR-TAF

Lentoasemat :

Angoon, Alaska, Yhdysvallat

Leveyspiiri: 57-30N, Pituuspiiri: 134-35W, korkeus merenpinnasta: 0 m

Tämänhetkinen sää

Tämä raportti tehtiin 14 minuuttia sitten, kello 18.56 UTC
Tuuli 3 kn idästä/koillisesta
Lämpötila -2°C
Kosteus 100%
Ilmanpaine 1031 hPa
Näkyvyys: 16.1 km
Hajonneita pilviä 400 ft:n korkeudessa
Pilvistä 1100 ft:n korkeudessa

METAR: PAGN 211856Z AUTO 06003KT 10SM BKN004 OVC011 M02/M02 A3045 RMK AO2 SLP302 T10171022 FZRANO

Aika: 10:10 (19:10 UTC)


TAF: puuttuu

Säähavainnot ja -ennusteet yli 4000 lentoasemalta (METAR- ja TAF-raportit).

Käytössä olevat sääasemat on merkitty karttaan keltaisilla ja punaisilla pisteillä.

Aseta hiiri pisteen päälle nähdäksesi sääaseman nimen.

Klikkaa sitten nähdäksesi säähavainnot ja -ennusteet.

Kartan vaihtaminen: klikkaa mustalla rastilla varustettuja vihreitä pisteitä, niin voit zoomata sisään; viivalla varustettua vihreää pistettä, niin voit zoomata ulos tai vihreitä nuolia, niin pääset viereisille kartoille.


METAR-TAF: